Time;durP1;ratioP1;P1;durP2;ratioP2;P2;SDS_P1;SDS_P2;PMS_P1;PMS_P2;Temp;Humidity;BMP_temperature;BMP_pressure;BME280_temperature;BME280_humidity;BME280_pressure;Samples;Min_cycle;Max_cycle;Signal;HPM_P1;HPM_P2
2022/09/29 00:00:30;;;;;;;4.93;4.63;;;-36.60;99.90;;;;;;5086265;28;20525;-68
2022/09/29 00:02:56;;;;;;;6.13;4.97;;;-40.00;99.90;;;;;;5082730;28;20233;-69
2022/09/29 00:05:22;;;;;;;6.07;4.97;;;-40.00;99.90;;;;;;5074231;28;20183;-69
2022/09/29 00:07:48;;;;;;;5.37;4.97;;;-36.30;99.90;;;;;;5075036;28;20178;-69
2022/09/29 00:10:14;;;;;;;5.50;5.00;;;-35.40;99.90;;;;;;5081472;28;20191;-69
2022/09/29 00:12:39;;;;;;;5.20;4.70;;;-38.50;99.90;;;;;;5083895;28;20230;-69
2022/09/29 00:15:06;;;;;;;5.03;4.63;;;-39.10;99.90;;;;;;5082369;28;20212;-70
2022/09/29 00:17:31;;;;;;;8.10;5.17;;;-37.10;99.90;;;;;;5082039;28;20184;-67
2022/09/29 00:19:57;;;;;;;5.30;4.80;;;-34.50;99.90;;;;;;5078295;28;20434;-69
2022/09/29 00:22:23;;;;;;;5.07;4.70;;;-30.90;99.90;;;;;;5075249;28;20201;-68
2022/09/29 00:24:49;;;;;;;5.03;4.63;;;-34.70;99.90;;;;;;5078229;28;20178;-69
2022/09/29 00:27:18;;;;;;;5.43;5.00;;;-33.00;99.90;;;;;;5078707;28;20183;-73
2022/09/29 00:29:45;;;;;;;6.47;5.27;;;-34.80;99.90;;;;;;5080927;28;20182;-73
2022/09/29 00:32:10;;;;;;;5.10;4.70;;;-36.70;99.90;;;;;;5081048;28;20437;-69
2022/09/29 00:34:36;;;;;;;5.90;5.40;;;-40.00;99.90;;;;;;5075927;28;20539;-69
2022/09/29 00:37:03;;;;;;;6.20;5.47;;;-34.80;99.90;;;;;;5074421;28;20663;-71
2022/09/29 00:39:28;;;;;;;6.03;4.77;;;-33.80;99.90;;;;;;5077992;28;20527;-68
2022/09/29 00:41:56;;;;;;;4.57;4.27;;;-40.00;99.90;;;;;;5073833;28;20455;-70
2022/09/29 00:44:22;;;;;;;7.37;4.90;;;-37.00;99.90;;;;;;5079852;28;20184;-69
2022/09/29 00:46:59;;;;;;;6.53;4.47;;;-40.00;99.90;;;;;;5078994;28;20420;-68
2022/09/29 00:49:43;;;;;;;6.87;4.50;;;-37.40;99.90;;;;;;5074810;28;20173;-69
2022/09/29 00:52:15;;;;;;;4.57;4.17;;;-40.00;99.90;;;;;;5074755;28;20483;-68
2022/09/29 00:54:46;;;;;;;5.03;4.53;;;-40.00;99.90;;;;;;5074723;28;20431;-68
2022/09/29 00:57:15;;;;;;;6.10;5.07;;;-40.00;99.90;;;;;;5078494;28;21020;-70
2022/09/29 00:59:48;;;;;;;5.33;4.83;;;-40.00;99.90;;;;;;5075599;28;20934;-68
2022/09/29 01:02:16;;;;;;;5.27;4.80;;;-40.00;99.90;;;;;;5087306;28;20514;-70
2022/09/29 01:04:42;;;;;;;6.70;5.43;;;-40.00;99.90;;;;;;5086046;28;20478;-69
2022/09/29 01:07:09;;;;;;;7.60;5.70;;;-40.00;99.90;;;;;;5084379;28;20855;-68
2022/09/29 01:09:37;;;;;;;7.20;5.43;;;-36.80;99.90;;;;;;5081928;28;20418;-69
2022/09/29 01:12:04;;;;;;;6.40;5.80;;;-40.00;99.90;;;;;;5078131;28;20459;-68
2022/09/29 01:14:32;;;;;;;7.80;5.87;;;-40.00;99.90;;;;;;5080549;28;20449;-68
2022/09/29 01:16:58;;;;;;;9.83;5.33;;;-39.50;99.90;;;;;;5084327;28;20440;-68
2022/09/29 01:19:30;;;;;;;7.20;5.70;;;-35.90;99.90;;;;;;5080098;28;20569;-69
2022/09/29 01:22:08;;;;;;;5.63;5.10;;;-36.60;99.90;;;;;;5083734;28;20452;-68
2022/09/29 01:24:40;;;;;;;6.83;5.33;;;-38.40;99.90;;;;;;5083505;28;20894;-68
2022/09/29 01:27:32;;;;;;;7.13;5.10;;;-40.00;99.90;;;;;;5077145;28;20897;-68
2022/09/29 01:30:10;;;;;;;7.07;6.10;;;-40.00;99.90;;;;;;5078101;28;20441;-69
2022/09/29 01:32:54;;;;;;;8.77;5.73;;;-40.00;99.90;;;;;;5077811;28;20519;-69
2022/09/29 01:35:44;;;;;;;6.07;4.83;;;-40.00;99.90;;;;;;5081600;28;20483;-69
2022/09/29 01:38:22;;;;;;;5.60;5.00;;;-40.00;99.90;;;;;;5078292;28;20511;-68
2022/09/29 01:41:25;;;;;;;5.50;5.00;;;-40.00;99.90;;;;;;5077629;28;20428;-68
2022/09/29 01:44:03;;;;;;;8.33;5.30;;;-40.00;99.90;;;;;;5059628;28;20468;-68
2022/09/29 01:46:39;;;;;;;8.13;4.80;;;-40.00;99.90;;;;;;5083943;28;20423;-68
2022/09/29 01:49:07;;;;;;;4.30;4.00;;;-40.00;99.90;;;;;;5087771;28;20422;-68
2022/09/29 01:51:58;;;;;;;6.93;5.20;;;-40.00;99.90;;;;;;5078081;28;20425;-69
2022/09/29 01:54:39;;;;;;;6.17;5.67;;;-40.00;99.90;;;;;;5074631;28;20532;-68
2022/09/29 01:57:16;;;;;;;8.73;5.07;;;-40.00;99.90;;;;;;5077533;28;20451;-72
2022/09/29 02:00:14;;;;;;;5.23;4.57;;;-40.00;99.90;;;;;;5083320;28;20513;-68
2022/09/29 02:03:01;;;;;;;6.50;5.90;;;-40.00;99.90;;;;;;5082565;28;20471;-69
2022/09/29 02:05:37;;;;;;;7.40;4.97;;;-40.00;99.90;;;;;;5082461;28;20429;-69
2022/09/29 02:08:24;;;;;;;5.63;5.17;;;-40.00;99.90;;;;;;5083627;28;20435;-67
2022/09/29 02:11:05;;;;;;;7.00;5.63;;;-40.00;99.90;;;;;;5077228;28;20722;-69
2022/09/29 02:13:34;;;;;;;6.30;5.70;;;-40.00;99.90;;;;;;5076728;28;20446;-70
2022/09/29 02:16:01;;;;;;;5.47;4.97;;;-40.00;99.90;;;;;;5077635;28;20437;-68
2022/09/29 02:18:32;;;;;;;10.27;5.60;;;-40.00;99.90;;;;;;5080787;28;20881;-66
2022/09/29 02:20:58;;;;;;;6.43;5.83;;;-40.00;99.90;;;;;;5081127;28;20445;-68
2022/09/29 02:23:24;;;;;;;8.50;6.13;;;-40.00;99.90;;;;;;5083128;28;20773;-67
2022/09/29 02:25:51;;;;;;;7.80;5.20;;;-40.00;99.90;;;;;;5076987;28;20238;-67
2022/09/29 02:28:18;;;;;;;5.67;5.17;;;-40.00;99.90;;;;;;5077057;28;20175;-68
2022/09/29 02:30:44;;;;;;;13.30;4.90;;;-40.00;99.90;;;;;;5083111;28;20493;-70
2022/09/29 02:33:24;;;;;;;7.13;5.20;;;-40.00;99.90;;;;;;5076984;28;20437;-67
2022/09/29 02:36:01;;;;;;;9.97;5.77;;;-40.00;99.90;;;;;;5088759;28;20430;-69
2022/09/29 02:38:58;;;;;;;4.63;4.33;;;-40.00;99.90;;;;;;5081746;28;20429;-68
2022/09/29 02:41:41;;;;;;;8.20;5.63;;;-40.00;99.90;;;;;;5076822;28;20468;-69
2022/09/29 02:44:24;;;;;;;6.10;5.07;;;-40.00;99.90;;;;;;5087175;28;20438;-68
2022/09/29 02:47:02;;;;;;;5.73;5.23;;;-40.00;99.90;;;;;;5082654;28;20421;-68
2022/09/29 02:49:37;;;;;;;4.53;4.17;;;-40.00;99.90;;;;;;5076690;28;20420;-70
2022/09/29 02:52:47;;;;;;;8.17;5.43;;;-40.00;99.90;;;;;;5084536;28;20426;-68
2022/09/29 02:55:44;;;;;;;9.03;5.77;;;-40.00;99.90;;;;;;5053726;28;20534;-75
2022/09/29 02:58:26;;;;;;;5.23;4.83;;;-40.00;99.90;;;;;;5076726;28;20422;-69
2022/09/29 03:00:53;;;;;;;6.83;4.67;;;-40.00;99.90;;;;;;5081006;28;20460;-72
2022/09/29 03:03:18;;;;;;;4.80;4.20;;;-40.00;99.90;;;;;;5076442;28;20472;-67
2022/09/29 03:05:44;;;;;;;11.13;5.27;;;-40.00;99.90;;;;;;5083196;28;20427;-73
2022/09/29 03:08:10;;;;;;;9.77;5.47;;;-40.00;99.90;;;;;;5075801;28;20178;-71
2022/09/29 03:10:36;;;;;;;7.57;5.63;;;-40.00;99.90;;;;;;5076683;28;20454;-68
2022/09/29 03:13:02;;;;;;;5.37;4.90;;;-40.00;99.90;;;;;;5082318;28;20206;-68
2022/09/29 03:15:27;;;;;;;6.97;5.67;;;-40.00;99.90;;;;;;5082343;28;20193;-68
2022/09/29 03:17:56;;;;;;;5.47;5.07;;;-40.00;99.90;;;;;;5075877;28;20220;-68
2022/09/29 03:20:22;;;;;;;8.57;5.57;;;-40.00;99.90;;;;;;5090205;28;20198;-70
2022/09/29 03:22:48;;;;;;;6.50;5.83;;;-40.00;99.90;;;;;;5075648;28;20464;-69
2022/09/29 03:25:14;;;;;;;8.73;4.87;;;-40.00;99.90;;;;;;5075983;28;20432;-75
2022/09/29 03:27:40;;;;;;;6.27;5.77;;;-40.00;99.90;;;;;;5076294;28;20207;-74
2022/09/29 03:30:07;;;;;;;5.63;5.17;;;-40.00;99.90;;;;;;5075915;28;20592;-73
2022/09/29 03:32:32;;;;;;;6.33;5.73;;;-40.00;99.90;;;;;;5075894;28;20452;-68
2022/09/29 03:34:58;;;;;;;6.20;4.97;;;-40.00;99.90;;;;;;5086698;28;20432;-67
2022/09/29 03:37:24;;;;;;;7.30;5.57;;;-40.00;99.90;;;;;;5082170;28;20183;-67
2022/09/29 03:39:50;;;;;;;5.73;5.20;;;-40.00;99.90;;;;;;5084511;28;20184;-69
2022/09/29 03:42:16;;;;;;;7.67;5.63;;;-40.00;99.90;;;;;;5082544;28;20237;-69
2022/09/29 03:44:41;;;;;;;11.53;6.00;;;-40.00;99.90;;;;;;5075666;28;20264;-68
2022/09/29 03:47:07;;;;;;;5.37;4.87;;;-40.00;99.90;;;;;;5075557;28;20276;-69
2022/09/29 03:49:33;;;;;;;6.07;5.57;;;-40.00;99.90;;;;;;5081643;28;20188;-73
2022/09/29 03:51:59;;;;;;;7.07;5.93;;;-40.00;99.90;;;;;;5075612;28;20260;-70
2022/09/29 03:54:26;;;;;;;10.20;5.53;;;-40.00;99.90;;;;;;5080647;28;20467;-73
2022/09/29 03:56:52;;;;;;;10.60;5.50;;;-40.00;99.90;;;;;;5081892;28;20242;-69
2022/09/29 03:59:18;;;;;;;8.53;6.57;;;-40.00;99.90;;;;;;5083006;28;20873;-68
2022/09/29 04:01:43;;;;;;;9.50;5.90;;;-40.00;99.90;;;;;;5074956;28;20194;-72
2022/09/29 04:04:11;;;;;;;6.57;5.77;;;-40.00;99.90;;;;;;5074739;28;20210;-68
2022/09/29 04:06:37;;;;;;;7.23;6.53;;;-40.00;99.90;;;;;;5075695;28;20434;-68
2022/09/29 04:09:03;;;;;;;8.30;6.30;;;-40.00;99.90;;;;;;5079604;28;20476;-68
2022/09/29 04:11:29;;;;;;;7.23;6.50;;;-40.00;99.90;;;;;;5079896;28;20178;-67
2022/09/29 04:13:55;;;;;;;7.60;6.90;;;-40.00;99.90;;;;;;5073766;28;20534;-69
2022/09/29 04:16:20;;;;;;;7.00;5.17;;;-40.00;99.90;;;;;;5075452;28;20519;-69
2022/09/29 04:18:46;;;;;;;7.37;5.33;;;-40.00;99.90;;;;;;5075312;28;20344;-68
2022/09/29 04:21:12;;;;;;;13.47;6.70;;;-40.00;99.90;;;;;;5082474;28;20597;-73
2022/09/29 04:23:38;;;;;;;8.43;5.93;;;-40.00;99.90;;;;;;5074953;28;20213;-67
2022/09/29 04:26:04;;;;;;;6.17;5.13;;;-40.00;99.90;;;;;;5079164;28;20195;-69
2022/09/29 04:28:34;;;;;;;9.10;5.17;;;-40.00;99.90;;;;;;5082052;28;20544;-68
2022/09/29 04:31:01;;;;;;;7.03;6.33;;;-40.00;99.90;;;;;;5075081;28;20477;-77
2022/09/29 04:33:28;;;;;;;11.13;6.53;;;-40.00;99.90;;;;;;5077571;28;20902;-67
2022/09/29 04:35:55;;;;;;;7.70;6.40;;;-40.00;99.90;;;;;;5084582;28;20493;-69
2022/09/29 04:38:21;;;;;;;9.93;6.17;;;-40.00;99.90;;;;;;5079441;28;20941;-76
2022/09/29 04:40:47;;;;;;;7.00;5.43;;;-40.00;99.90;;;;;;5085430;28;20939;-68
2022/09/29 04:43:14;;;;;;;6.20;5.17;;;-40.00;99.90;;;;;;5088864;28;20464;-69
2022/09/29 04:45:39;;;;;;;8.73;6.43;;;-40.00;99.90;;;;;;5084783;28;20434;-71
2022/09/29 04:48:06;;;;;;;5.80;5.33;;;-40.00;99.90;;;;;;5081852;28;20481;-68
2022/09/29 04:50:32;;;;;;;7.40;5.40;;;-40.00;99.90;;;;;;5082510;28;20533;-68
2022/09/29 04:52:58;;;;;;;10.43;6.13;;;-40.00;99.90;;;;;;5078866;28;20931;-68
2022/09/29 04:55:25;;;;;;;6.57;5.63;;;-40.00;99.90;;;;;;5082580;28;20491;-73
2022/09/29 04:57:50;;;;;;;7.77;5.43;;;-40.00;99.90;;;;;;5084779;28;20848;-69
2022/09/29 05:00:16;;;;;;;8.67;5.37;;;-40.00;99.90;;;;;;5080320;28;20446;-71
2022/09/29 05:02:42;;;;;;;7.17;6.13;;;-40.00;99.90;;;;;;5084723;28;20335;-69
2022/09/29 05:05:09;;;;;;;11.57;5.77;;;-40.00;99.90;;;;;;5084119;28;20487;-73
2022/09/29 05:07:36;;;;;;;8.43;5.80;;;-40.00;99.90;;;;;;5078615;28;20421;-70
2022/09/29 05:10:03;;;;;;;12.13;6.13;;;-40.00;99.90;;;;;;5078501;28;20583;-70
2022/09/29 05:12:29;;;;;;;8.73;6.40;;;-40.00;99.90;;;;;;5078934;28;20459;-67
2022/09/29 05:14:55;;;;;;;10.27;5.80;;;-40.00;99.90;;;;;;5077115;28;20430;-67
2022/09/29 05:17:20;;;;;;;7.87;5.67;;;-40.00;99.90;;;;;;5077936;28;20313;-74
2022/09/29 05:19:46;;;;;;;8.03;5.83;;;-40.00;99.90;;;;;;5078354;28;20214;-68
2022/09/29 05:22:12;;;;;;;9.57;5.80;;;-40.00;99.90;;;;;;5082958;28;20212;-69
2022/09/29 05:24:39;;;;;;;5.83;5.33;;;-40.00;99.90;;;;;;5088477;28;20178;-83
2022/09/29 05:27:04;;;;;;;8.93;6.03;;;-40.00;99.90;;;;;;5083691;28;20196;-79
2022/09/29 05:29:30;;;;;;;8.90;5.70;;;-40.00;99.90;;;;;;5086708;28;20415;-81
2022/09/29 05:31:56;;;;;;;11.80;6.47;;;-40.00;99.90;;;;;;5081959;28;20269;-72
2022/09/29 05:34:22;;;;;;;7.13;5.60;;;-40.00;99.90;;;;;;5078075;28;21146;-70
2022/09/29 05:36:48;;;;;;;6.10;5.43;;;-40.00;99.90;;;;;;5082371;28;20182;-70
2022/09/29 05:39:13;;;;;;;13.00;6.27;;;-40.00;99.90;;;;;;5081612;28;20566;-70
2022/09/29 05:41:39;;;;;;;10.93;5.87;;;-40.00;99.90;;;;;;5084804;28;20478;-67
2022/09/29 05:44:05;;;;;;;9.23;6.70;;;-40.00;99.90;;;;;;5078287;28;20622;-72
2022/09/29 05:46:31;;;;;;;9.03;6.03;;;-40.00;99.90;;;;;;5079667;28;20204;-78
2022/09/29 05:49:00;;;;;;;9.33;7.07;;;-40.00;99.90;;;;;;5077814;28;20182;-82
2022/09/29 05:51:26;;;;;;;10.73;6.23;;;-40.00;99.90;;;;;;5084009;28;20262;-71
2022/09/29 05:53:53;;;;;;;12.77;7.13;;;-40.00;99.90;;;;;;5085339;28;20430;-70
2022/09/29 05:56:24;;;;;;;9.33;7.53;;;-40.00;99.90;;;;;;5080594;28;20422;-68
2022/09/29 05:58:51;;;;;;;9.67;8.67;;;-40.00;99.90;;;;;;5081768;28;20511;-70
2022/09/29 06:01:22;;;;;;;21.27;9.73;;;-40.00;99.90;;;;;;5077357;28;20443;-76
2022/09/29 06:03:50;;;;;;;11.20;7.67;;;-40.00;99.90;;;;;;5076747;28;20462;-70
2022/09/29 06:06:19;;;;;;;9.97;6.90;;;-40.00;99.90;;;;;;5076522;28;20424;-70
2022/09/29 06:08:46;;;;;;;14.33;7.33;;;-40.00;99.90;;;;;;5083574;28;20431;-67
2022/09/29 06:11:24;;;;;;;10.53;8.30;;;-40.00;99.90;;;;;;5080246;28;20422;-72
2022/09/29 06:13:51;;;;;;;14.93;7.80;;;-40.00;99.90;;;;;;5086265;28;20579;-67
2022/09/29 06:16:21;;;;;;;10.13;7.00;;;-40.00;99.90;;;;;;5078025;28;20949;-72
2022/09/29 06:18:47;;;;;;;10.10;7.93;;;-40.00;99.90;;;;;;5077120;28;20958;-73
2022/09/29 06:21:18;;;;;;;14.60;9.70;;;-40.00;99.90;;;;;;5083548;28;20873;-72
2022/09/29 06:23:45;;;;;;;12.43;7.57;;;-40.00;99.90;;;;;;5084324;28;20463;-68
2022/09/29 06:26:13;;;;;;;9.83;7.43;;;-40.00;99.90;;;;;;5076098;28;20906;-70
2022/09/29 06:28:39;;;;;;;8.97;7.97;;;-40.00;99.90;;;;;;5083316;28;20424;-75
2022/09/29 06:31:13;;;;;;;10.97;8.20;;;-40.00;99.90;;;;;;5082603;28;20430;-71
2022/09/29 06:33:39;;;;;;;10.20;9.10;;;-40.00;99.90;;;;;;5081932;28;20427;-67
2022/09/29 06:39:05;;;;;;;14.33;8.93;;;-40.00;99.90;;;;;;5075971;28;20224;-68
2022/09/29 06:41:31;;;;;;;11.13;8.30;;;-40.00;99.90;;;;;;5081946;28;20425;-68
2022/09/29 06:43:57;;;;;;;12.23;8.60;;;-40.00;99.90;;;;;;5093049;28;20485;-74
2022/09/29 06:46:25;;;;;;;17.97;10.27;;;-40.00;99.90;;;;;;5090817;28;20877;-73
2022/09/29 06:48:52;;;;;;;10.73;8.07;;;-40.00;99.90;;;;;;5076605;28;20180;-68
2022/09/29 06:51:21;;;;;;;11.40;8.33;;;-40.00;99.90;;;;;;5076421;28;20409;-68
2022/09/29 06:53:47;;;;;;;9.77;7.87;;;-40.00;99.90;;;;;;5076285;28;20337;-71
2022/09/29 06:56:13;;;;;;;14.60;10.03;;;-40.00;99.90;;;;;;5076351;28;20651;-68
2022/09/29 06:58:39;;;;;;;8.13;7.17;;;-40.00;99.90;;;;;;5075544;28;20427;-71
2022/09/29 07:01:05;;;;;;;10.60;8.60;;;-40.00;99.90;;;;;;5076007;28;20278;-67
2022/09/29 07:03:32;;;;;;;19.63;9.00;;;-40.00;99.90;;;;;;5084555;28;20246;-68
2022/09/29 07:06:05;;;;;;;17.53;9.00;;;-40.00;99.90;;;;;;5081278;28;20188;-71
2022/09/29 07:08:31;;;;;;;13.30;8.23;;;-40.00;99.90;;;;;;5075636;28;20316;-68
2022/09/29 07:10:57;;;;;;;13.47;8.37;;;-40.00;99.90;;;;;;5075818;28;20186;-67
2022/09/29 07:13:24;;;;;;;19.33;8.37;;;-40.00;99.90;;;;;;5079688;28;20452;-68
2022/09/29 07:15:50;;;;;;;8.93;8.00;;;-40.00;99.90;;;;;;5080190;28;20183;-70
2022/09/29 07:18:16;;;;;;;11.13;7.57;;;-40.00;99.90;;;;;;5075533;28;20193;-71
2022/09/29 07:20:41;;;;;;;10.27;7.83;;;-40.00;99.90;;;;;;5074591;28;20793;-67
2022/09/29 07:23:07;;;;;;;10.37;9.07;;;-40.00;99.90;;;;;;5075350;28;20231;-68
2022/09/29 07:25:33;;;;;;;14.20;7.67;;;-40.00;99.90;;;;;;5074782;28;20602;-68
2022/09/29 07:28:00;;;;;;;7.93;6.77;;;-40.00;99.90;;;;;;5079449;28;20222;-67
2022/09/29 07:30:30;;;;;;;9.60;8.57;;;-40.00;99.90;;;;;;5078949;28;20177;-72
2022/09/29 07:32:56;;;;;;;12.83;8.13;;;-40.00;99.90;;;;;;5079864;28;20187;-73
2022/09/29 07:35:22;;;;;;;10.37;7.60;;;-40.00;99.90;;;;;;5082497;28;20175;-73
2022/09/29 07:37:52;;;;;;;14.57;8.87;;;-40.00;99.90;;;;;;5074596;28;20586;-74
2022/09/29 07:40:21;;;;;;;17.80;8.47;;;-40.00;99.90;;;;;;5075806;28;20274;-75
2022/09/29 07:42:48;;;;;;;10.30;7.53;;;-40.00;99.90;;;;;;5076705;28;20695;-75
2022/09/29 07:45:14;;;;;;;14.70;8.50;;;-40.00;99.90;;;;;;5078673;28;20180;-70
2022/09/29 07:47:40;;;;;;;10.00;7.27;;;-40.00;99.90;;;;;;5079348;28;20211;-73
2022/09/29 07:50:06;;;;;;;13.87;8.57;;;-40.00;99.90;;;;;;5081524;28;20194;-75
2022/09/29 07:52:32;;;;;;;13.33;8.50;;;-40.00;99.90;;;;;;5075384;28;20470;-70
2022/09/29 07:54:57;;;;;;;13.63;8.30;;;-40.00;99.90;;;;;;5075388;28;20194;-72
2022/09/29 07:57:23;;;;;;;15.13;9.03;;;-40.00;99.90;;;;;;5081579;28;20328;-71
2022/09/29 07:59:49;;;;;;;17.50;8.77;;;-40.00;99.90;;;;;;5076990;28;20200;-73
2022/09/29 08:02:15;;;;;;;18.07;8.83;;;-40.00;99.90;;;;;;5082631;28;20209;-76
2022/09/29 08:04:42;;;;;;;10.73;8.80;;;-40.00;99.90;;;;;;5084092;28;20182;-74
2022/09/29 08:07:09;;;;;;;11.77;8.17;;;-40.00;99.90;;;;;;5085563;28;20228;-75
2022/09/29 08:09:34;;;;;;;16.47;9.43;;;-40.00;99.90;;;;;;5077012;28;20606;-74
2022/09/29 08:12:00;;;;;;;13.90;8.27;;;-40.00;99.90;;;;;;5074959;28;20176;-74
2022/09/29 08:14:26;;;;;;;13.07;9.17;;;-40.00;99.90;;;;;;5074986;28;20195;-69
2022/09/29 08:16:52;;;;;;;14.97;10.37;;;-40.00;99.90;;;;;;5081739;28;20185;-73
2022/09/29 08:19:18;;;;;;;19.70;10.93;;;-40.00;99.90;;;;;;5080316;28;20579;-68
2022/09/29 08:21:45;;;;;;;13.77;8.83;;;-40.00;99.90;;;;;;5088669;28;20190;-68
2022/09/29 08:24:12;;;;;;;11.87;8.33;;;-40.00;99.90;;;;;;5087302;28;20201;-69
2022/09/29 08:26:39;;;;;;;16.33;9.20;;;-40.00;99.90;;;;;;5073901;28;20172;-69
2022/09/29 08:29:05;;;;;;;14.83;9.43;;;-40.00;99.90;;;;;;5074163;28;20194;-68
2022/09/29 08:31:31;;;;;;;9.90;8.57;;;-40.00;99.90;;;;;;5074922;28;20184;-69
2022/09/29 08:33:57;;;;;;;9.47;8.23;;;-40.00;99.90;;;;;;5074981;28;20545;-72
2022/09/29 08:36:23;;;;;;;13.17;8.90;;;-40.00;99.90;;;;;;5074077;28;20268;-74
2022/09/29 08:38:52;;;;;;;10.47;7.93;;;-40.00;99.90;;;;;;5078526;28;20218;-70
2022/09/29 08:41:39;;;;;;;10.87;8.10;;;-40.00;99.90;;;;;;5083102;28;20190;-74
2022/09/29 08:44:17;;;;;;;22.63;8.03;;;-40.00;99.90;;;;;;5080087;28;20204;-77
2022/09/29 08:47:02;;;;;;;11.93;7.53;;;-40.00;99.90;;;;;;5081125;28;20584;-75
2022/09/29 08:50:01;;;;;;;15.37;8.53;;;-40.00;99.90;;;;;;5077464;28;20183;-68
2022/09/29 08:52:32;;;;;;;12.63;8.03;;;-40.00;99.90;;;;;;5074493;28;20182;-71
2022/09/29 08:55:06;;;;;;;10.97;7.03;;;-40.00;99.90;;;;;;5073004;28;20266;-71
2022/09/29 08:57:34;;;;;;;12.33;6.77;;;-40.00;99.90;;;;;;5078745;28;20656;-76
2022/09/29 09:00:00;;;;;;;12.23;6.80;;;-40.00;99.90;;;;;;5080631;28;20223;-74
2022/09/29 09:02:41;;;;;;;9.20;6.47;;;-40.00;99.90;;;;;;5087862;28;20201;-74
2022/09/29 09:05:39;;;;;;;10.43;6.40;;;-40.00;99.90;;;;;;5081715;28;20193;-78
2022/09/29 09:08:24;;;;;;;11.53;6.70;;;-40.00;99.90;;;;;;5079285;28;20178;-68
2022/09/29 09:11:24;;;;;;;10.97;7.10;;;-40.00;99.90;;;;;;5074651;28;20205;-68
2022/09/29 09:14:11;;;;;;;7.20;5.70;;;-40.00;99.90;;;;;;5074499;28;20206;-71
2022/09/29 09:16:59;;;;;;;11.63;5.80;;;-40.00;99.90;;;;;;5077079;28;20185;-73
2022/09/29 09:19:54;;;;;;;17.30;6.23;;;-40.00;99.90;;;;;;5076927;28;20211;-68
2022/09/29 09:22:46;;;;;;;7.53;5.70;;;-40.00;99.90;;;;;;5077476;28;20798;-67
2022/09/29 09:25:24;;;;;;;6.80;5.33;;;-40.00;99.90;;;;;;5083045;28;20194;-68
2022/09/29 09:27:58;;;;;;;7.27;5.87;;;-40.00;99.90;;;;;;5078245;28;20185;-71
2022/09/29 09:30:29;;;;;;;11.37;6.50;;;-40.00;99.90;;;;;;5084707;28;20223;-73
2022/09/29 09:33:01;;;;;;;6.73;6.03;;;-40.00;99.90;;;;;;5078817;28;20194;-68
2022/09/29 09:35:35;;;;;;;6.93;6.07;;;-40.00;99.90;;;;;;5078116;28;20179;-72
2022/09/29 09:38:09;;;;;;;6.73;5.23;;;-40.00;99.90;;;;;;5093090;28;20190;-70
2022/09/29 09:40:43;;;;;;;6.87;6.17;;;-40.00;99.90;;;;;;5082644;28;20186;-69
2022/09/29 09:43:38;;;;;;;8.93;5.10;;;-40.00;99.90;;;;;;5081447;28;20213;-76
2022/09/29 09:46:19;;;;;;;7.63;4.80;;;-40.00;99.90;;;;;;5088201;28;20200;-68
2022/09/29 09:49:09;;;;;;;7.17;5.67;;;-40.00;99.90;;;;;;5080962;28;20312;-68
2022/09/29 09:52:02;;;;;;;14.37;5.57;;;-40.00;99.90;;;;;;5077385;28;20180;-69
2022/09/29 09:54:28;;;;;;;5.93;4.27;;;-40.00;99.90;;;;;;5081774;28;20198;-71
2022/09/29 09:57:12;;;;;;;10.20;5.67;;;-40.00;99.90;;;;;;5077774;28;20202;-72
2022/09/29 09:59:40;;;;;;;6.00;4.40;;;-40.00;99.90;;;;;;5084004;28;20205;-67
2022/09/29 10:02:18;;;;;;;4.67;3.97;;;-40.00;99.90;;;;;;5078147;28;20487;-68
2022/09/29 10:04:45;;;;;;;6.27;4.23;;;-40.00;99.90;;;;;;5079023;28;20191;-68
2022/09/29 10:07:11;;;;;;;5.10;4.60;;;-40.00;99.90;;;;;;5083932;28;20258;-67
2022/09/29 10:09:37;;;;;;;4.40;3.90;;;-40.00;99.90;;;;;;5084041;28;20503;-66
2022/09/29 10:12:02;;;;;;;4.50;3.43;;;-40.00;99.90;;;;;;5077363;28;20167;-67
2022/09/29 10:14:29;;;;;;;6.80;4.93;;;-40.00;99.90;;;;;;5077842;28;20274;-70
2022/09/29 10:16:55;;;;;;;5.27;4.57;;;-40.00;99.90;;;;;;5078342;28;20177;-71
2022/09/29 10:19:22;;;;;;;5.90;4.70;;;-40.00;99.90;;;;;;5077579;28;20175;-70
2022/09/29 10:21:48;;;;;;;10.67;5.10;;;-40.00;99.90;;;;;;5077888;28;20172;-65
2022/09/29 10:24:27;;;;;;;7.07;5.10;;;-40.00;99.90;;;;;;5077004;28;20686;-67
2022/09/29 10:26:56;;;;;;;5.43;4.07;;;-40.00;99.90;;;;;;5076354;28;20532;-66
2022/09/29 10:29:41;;;;;;;3.53;3.23;;;-40.00;99.90;;;;;;5086683;28;20187;-65
2022/09/29 10:32:38;;;;;;;6.33;3.37;;;-40.00;99.90;;;;;;5081822;28;20265;-68
2022/09/29 10:35:25;;;;;;;4.03;3.30;;;-40.00;99.90;;;;;;5083785;28;20178;-67
2022/09/29 10:38:01;;;;;;;11.63;3.73;;;-40.00;99.90;;;;;;5082945;28;20192;-67
2022/09/29 10:40:27;;;;;;;5.23;3.47;;;-40.00;99.90;;;;;;5080230;28;20178;-76
2022/09/29 10:42:55;;;;;;;4.20;2.20;;;-40.00;99.90;;;;;;5076639;28;20205;-68
2022/09/29 10:45:26;;;;;;;4.47;3.20;;;-40.00;99.90;;;;;;5079501;28;20254;-67
2022/09/29 10:47:58;;;;;;;5.60;2.70;;;-40.00;99.90;;;;;;5084809;28;20205;-67
2022/09/29 10:50:27;;;;;;;5.47;3.27;;;-40.00;99.90;;;;;;5081991;28;20217;-67
2022/09/29 10:52:54;;;;;;;6.00;5.20;;;-40.00;99.90;;;;;;5084780;28;20229;-67
2022/09/29 10:55:50;;;;;;;4.67;4.27;;;-40.00;99.90;;;;;;5075749;28;20179;-67
2022/09/29 10:58:44;;;;;;;7.73;4.37;;;-40.00;99.90;;;;;;5076384;28;20183;-67
2022/09/29 11:01:16;;;;;;;5.77;3.37;;;-40.00;99.90;;;;;;5074905;28;20253;-69
2022/09/29 11:03:50;;;;;;;16.07;14.50;;;-40.00;99.90;;;;;;5079847;28;20226;-74
2022/09/29 11:06:30;;;;;;;13.73;12.43;;;-40.00;99.90;;;;;;5081008;28;20194;-69
2022/09/29 11:09:14;;;;;;;7.63;5.63;;;-40.00;99.90;;;;;;5075917;28;20179;-66
2022/09/29 11:11:56;;;;;;;8.73;4.27;;;-40.00;99.90;;;;;;5079741;28;20190;-69
2022/09/29 11:14:37;;;;;;;7.87;5.73;;;-40.00;99.50;;;;;;5086348;28;20267;-71
2022/09/29 11:17:21;;;;;;;4.37;2.93;;;-40.00;96.40;;;;;;5075434;28;20179;-66
2022/09/29 11:19:48;;;;;;;9.20;3.90;;;-40.00;95.60;;;;;;5088427;28;20215;-74
2022/09/29 11:22:40;;;;;;;8.83;3.30;;;-40.00;96.50;;;;;;5075764;28;20186;-70
2022/09/29 11:25:25;;;;;;;2.47;2.10;;;-40.00;96.00;;;;;;5075476;28;20183;-75
2022/09/29 11:28:18;;;;;;;1.83;1.23;;;-40.00;97.70;;;;;;5080482;28;20187;-76
2022/09/29 11:31:33;;;;;;;2.57;0.93;;;-40.00;92.60;;;;;;5074519;28;20186;-76
2022/09/29 11:34:22;;;;;;;1.43;1.27;;;-40.00;92.70;;;;;;5058386;28;20202;-69
2022/09/29 11:36:59;;;;;;;5.10;1.03;;;-40.00;90.20;;;;;;5081181;28;20202;-77
2022/09/29 11:39:25;;;;;;;1.97;0.93;;;-40.00;88.10;;;;;;5081148;28;20229;-70
2022/09/29 11:42:04;;;;;;;1.40;0.67;;;-40.00;87.00;;;;;;5081145;28;20183;-71
2022/09/29 11:44:48;;;;;;;2.23;1.23;;;-40.00;88.70;;;;;;5074608;28;20182;-69
2022/09/29 11:47:29;;;;;;;2.93;0.93;;;-40.00;79.50;;;;;;5082788;28;20214;-68
2022/09/29 11:50:20;;;;;;;1.57;0.90;;;-40.00;79.40;;;;;;5074000;28;20190;-75
2022/09/29 11:52:48;;;;;;;1.90;1.80;;;-40.00;74.60;;;;;;5075334;28;20190;-68
2022/09/29 11:55:28;;;;;;;3.93;3.57;;;-40.00;76.90;;;;;;5081425;28;20183;-67
2022/09/29 11:58:16;;;;;;;2.57;1.10;;;-40.00;72.80;;;;;;5085269;28;20260;-69
2022/09/29 12:00:54;;;;;;;2.10;1.90;;;-40.00;69.00;;;;;;5074766;28;20273;-70
2022/09/29 12:03:31;;;;;;;0.87;0.80;;;-40.00;66.40;;;;;;5084910;28;20207;-75
2022/09/29 12:06:14;;;;;;;3.00;1.37;;;-40.00;65.30;;;;;;5075726;28;20171;-76
2022/09/29 12:09:15;;;;;;;3.10;1.20;;;-40.00;65.20;;;;;;5074361;28;20179;-78
2022/09/29 12:11:59;;;;;;;1.77;1.53;;;-40.00;64.70;;;;;;5075101;28;20597;-68
2022/09/29 12:14:44;;;;;;;3.27;1.13;;;-40.00;60.80;;;;;;5081695;28;20221;-72
2022/09/29 12:17:14;;;;;;;3.80;1.20;;;-40.00;62.50;;;;;;5086405;28;20175;-75
2022/09/29 12:19:42;;;;;;;2.30;0.70;;;-40.00;64.90;;;;;;5084642;28;20293;-72
2022/09/29 12:22:14;;;;;;;1.40;0.63;;;-40.00;70.90;;;;;;5080874;28;20183;-77
2022/09/29 12:24:47;;;;;;;0.73;0.60;;;-36.50;73.40;;;;;;5083769;28;20220;-73
2022/09/29 12:27:23;;;;;;;1.77;1.20;;;-38.30;76.10;;;;;;5074114;28;20558;-79
2022/09/29 12:30:02;;;;;;;3.23;1.40;;;16.80;99.90;;;;;;5076286;28;20257;-68
2022/09/29 12:32:38;;;;;;;4.33;1.40;;;15.90;99.90;;;;;;5074410;28;20179;-74
2022/09/29 12:35:29;;;;;;;2.20;1.70;;;13.90;99.90;;;;;;5084143;28;20190;-75
2022/09/29 12:38:27;;;;;;;2.57;1.40;;;15.70;99.90;;;;;;5078193;28;20187;-68
2022/09/29 12:41:13;;;;;;;3.57;1.53;;;15.60;99.90;;;;;;5078612;28;20183;-69
2022/09/29 12:43:53;;;;;;;3.87;1.77;;;15.40;99.90;;;;;;5074801;28;20654;-67
2022/09/29 12:47:01;;;;;;;0.83;0.83;;;15.30;99.90;;;;;;5085957;28;20204;-69
2022/09/29 12:49:41;;;;;;;2.40;1.30;;;15.00;99.90;;;;;;5083177;28;20171;-66
2022/09/29 12:52:19;;;;;;;1.30;1.10;;;14.70;99.90;;;;;;5080648;28;20266;-68
2022/09/29 12:54:54;;;;;;;1.60;1.50;;;14.60;99.90;;;;;;5074742;28;20178;-65
2022/09/29 12:57:29;;;;;;;2.87;1.70;;;13.30;99.90;;;;;;5077684;28;20179;-73
2022/09/29 13:00:08;;;;;;;1.97;1.37;;;14.90;99.90;;;;;;5084282;28;20501;-69
2022/09/29 13:03:08;;;;;;;2.07;0.70;;;14.90;99.90;;;;;;5078405;28;20206;-70